EW5186 Weather Reports


time (UTC)temp
C
wind
direction
speed
KPH
gust
KPH
rain 1hr
cm
rain 24hr
cm
rain mn
cm
humidity
%
barometer
mb
20240614111541 21 207 1.6 11.3 0.00 0.00 0.00 81 1013.7
20240614110100 21 27 0.0 6.4 0.00 0.00 0.00 83 1013.6
20240614104524 20 127 1.6 6.4 0.00 0.00 0.00 84 1013.5
20240614103015 18 118 0.0 4.8 0.00 0.00 0.00 88 1014.0
20240614101606 18 216 0.0 3.2 0.00 0.00 0.00 88 1013.7
20240614100056 18 162 0.0 6.4 0.00 0.00 0.00 88 1013.7
20240614094546 17 115 0.0 3.2 0.00 0.00 0.00 89 1013.6
20240614093035 17 89 0.0 3.2 0.00 0.00 0.00 89 1013.8
20240614091518 17 164 0.0 1.6 0.00 0.00 0.00 89 1014.0
20240614090017 18 309 0.0 4.8 0.00 0.00 0.00 88 1013.9
20240614084603 18 100 0.0 3.2 0.00 0.00 0.00 88 1013.9
20240614083104 18 6 0.0 3.2 0.00 0.00 0.00 88 1013.9
20240614081540 18 285 0.0 6.4 0.00 0.00 0.00 88 1013.8
20240614080039 17 56 0.0 4.8 0.00 0.00 0.00 88 1013.7
20240614074539 17 173 0.0 4.8 0.00 0.00 0.00 89 1013.7
20240614073025 17 182 0.0 4.8 0.00 0.00 0.00 88 1014.0
20240614071522 17 179 0.0 3.2 0.00 0.00 0.00 88 1014.1
20240614070020 17 89 0.0 3.2 0.00 0.00 0.00 88 1014.1
20240614064519 18 198 0.0 3.2 0.00 0.00 0.00 88 1014.3
20240614063018 18 82 0.0 1.6 0.00 0.00 0.00 87 1014.4
20240614061516 18 108 0.0 3.2 0.00 0.00 0.00 87 1014.6
20240614060023 18 97 0.0 1.6 0.00 0.00 0.00 86 1014.7
20240614054555 18 253 0.0 0.0 0.00 0.00 0.00 86 1014.7
20240614053053 18 127 0.0 3.2 0.00 0.00 0.00 85 1015.1
20240614051534 18 230 0.0 4.8 0.00 0.00 0.00 85 1015.3
20240614050033 18 121 0.0 4.8 0.00 0.00 0.00 84 1015.4
20240614044531 18 86 0.0 3.2 0.00 0.00 0.00 84 1015.5
20240614043019 18 104 0.0 6.4 0.00 0.00 0.00 84 1015.6
20240614041515 18 94 0.0 4.8 0.00 0.00 0.00 84 1015.8
20240614040014 18 140 0.0 3.2 0.00 0.00 0.00 84 1016.0
20240614034513 18 141 0.0 4.8 0.00 0.00 0.00 84 1016.1
20240614033013 18 222 0.0 3.2 0.00 0.00 0.00 84 1016.1
20240614031526 18 134 0.0 4.8 0.00 0.00 0.00 83 1016.1
20240614030015 18 106 0.0 1.6 0.00 0.00 0.00 82 1016.1
20240614024557 18 91 0.0 3.2 0.00 0.00 0.00 82 1016.1
20240614023107 18 85 0.0 1.6 0.00 0.00 0.00 82 1016.3
20240614021536 19 77 0.0 3.2 0.00 0.00 0.00 81 1016.5
20240614020036 19 163 0.0 1.6 0.00 0.00 0.00 80 1016.7
20240614014517 20 214 0.0 1.6 0.00 0.00 0.00 79 1016.8
20240614013017 20 216 0.0 3.2 0.00 0.00 0.00 77 1016.7
20240614011504 20 160 1.6 6.4 0.00 0.00 0.00 75 1016.6
20240614010004 21 172 0.0 6.4 0.00 0.00 0.00 73 1016.7
20240614004503 21 269 0.0 8.0 0.00 0.00 0.00 70 1016.5
20240614003002 22 174 0.0 8.0 0.00 0.00 0.00 68 1016.4
20240614001506 22 115 0.0 6.4 0.00 0.00 0.00 66 1016.6
20240614000115 22 127 0.0 8.0 0.00 0.00 0.00 65 1016.5
20240613234604 23 189 0.0 8.0 0.00 0.00 0.00 63 1016.5
20240613233100 23 110 0.0 9.7 0.00 0.00 0.00 62 1016.4
20240613231543 24 64 3.2 14.5 0.00 0.00 0.00 60 1016.4
20240613230043 25 278 0.0 6.4 0.00 0.00 0.00 60 1016.2
20240613224523 25 73 0.0 11.3 0.00 0.00 0.00 59 1016.1
20240613223122 26 203 1.6 11.3 0.00 0.00 0.00 56 1016.2
20240613221512 26 159 0.0 9.7 0.00 0.00 0.00 57 1016.0
20240613220010 26 257 0.0 8.0 0.00 0.00 0.00 55 1015.8
20240613214510 26 317 1.6 11.3 0.00 0.00 0.00 56 1015.8
20240613213011 27 231 4.8 20.9 0.00 0.00 0.00 53 1015.8
20240613211508 27 283 3.2 17.7 0.00 0.00 0.00 55 1015.9
20240613210007 27 25 1.6 14.5 0.00 0.00 0.00 52 1015.8
20240613204506 27 134 3.2 17.7 0.00 0.00 0.00 55 1016.0
20240613203005 27 56 3.2 12.9 0.00 0.00 0.00 55 1016.0
20240613201505 27 235 1.6 11.3 0.00 0.00 0.00 58 1016.0
20240613200105 27 197 1.6 14.5 0.00 0.00 0.00 55 1016.2
20240613194559 27 144 3.2 14.5 0.00 0.00 0.00 59 1016.3
20240613193047 27 280 3.2 17.7 0.00 0.00 0.00 59 1016.4
20240613191547 27 176 3.2 8.0 0.00 0.00 0.00 58 1016.4
20240613190047 28 162 1.6 8.0 0.00 0.00 0.00 54 1016.6
20240613184547 28 236 1.6 12.9 0.00 0.00 0.00 53 1016.6
20240613183052 28 49 1.6 8.0 0.00 0.00 0.00 52 1016.5
20240613181542 28 41 0.0 9.7 0.00 0.00 0.00 49 1016.7
20240613180040 27 203 3.2 11.3 0.00 0.00 0.00 57 1016.7
20240613174544 27 112 0.0 8.0 0.00 0.00 0.00 51 1016.8
20240613173023 27 118 0.0 6.4 0.00 0.00 0.00 56 1016.8
20240613171523 27 69 1.6 12.9 0.00 0.00 0.00 58 1017.0
20240613170101 27 221 0.0 9.7 0.00 0.00 0.00 60 1017.0
20240613164600 27 162 0.0 4.8 0.00 0.00 0.00 61 1017.1
20240613163043 27 152 3.2 11.3 0.00 0.00 0.00 58 1017.2
20240613161548 27 307 0.0 6.4 0.00 0.00 0.00 55 1017.3
20240613160029 27 12 0.0 6.4 0.00 0.00 0.00 58 1017.3
20240613154524 26 171 0.0 8.0 0.00 0.00 0.00 53 1017.2
20240613153021 26 138 1.6 6.4 0.00 0.00 0.00 59 1017.4
20240613151518 26 107 1.6 9.7 0.00 0.00 0.00 62 1017.4
20240613150017 26 122 0.0 4.8 0.00 0.00 0.00 63 1017.6
20240613144529 25 326 0.0 8.0 0.00 0.00 0.00 67 1017.7
20240613143013 25 205 0.0 6.4 0.00 0.00 0.00 68 1017.7
20240613141512 25 158 1.6 4.8 0.00 0.00 0.00 68 1017.8
20240613140050 23 158 0.0 4.8 0.00 0.00 0.00 72 1018.1
20240613134605 23 86 1.6 8.0 0.00 0.00 0.00 71 1018.3
20240613133032 23 294 0.0 3.2 0.00 0.00 0.00 75 1018.3
20240613131526 22 309 0.0 6.4 0.00 0.00 0.00 75 1018.3
20240613130007 22 115 0.0 3.2 0.00 0.00 0.00 76 1018.3
20240613124504 21 123 0.0 3.2 0.00 0.00 0.00 82 1018.2
20240613123048 21 139 0.0 1.6 0.00 0.00 0.00 81 1018.2
20240613121540 20 257 0.0 4.8 0.00 0.00 0.00 85 1018.0
20240613120020 19 275 0.0 3.2 0.00 0.00 0.00 85 1018.1
20240613114516 18 141 0.0 1.6 0.00 0.00 0.00 90 1018.3
20240613113057 17 167 0.0 0.0 0.00 0.00 0.00 94 1018.1